Terminal Aerodrome Forecast
Issued by NWS Melbourne, FL

Home | Current Version | Previous Version | Text Only | Print | Product List | Glossary On
Versions: 1 2 3 4 5 6 7 8 9 10 11 12 13 14 15 16
000
FTUS42 KMLB 261138
TAFMLB
TAF
KMLB 261138Z 2612/2712 26006KT P6SM SCT008 BKN250
     FM261400 24011KT P6SM SCT020 BKN250
     FM261700 26013G20KT P6SM VCSH SCT040 SCT060 BKN250
     FM270000 25012KT P6SM VCSH SCT030 SCT050 BKN250
     FM270500 23008KT P6SM SCT010 BKN030=

USA.gov is the U.S. government's official web portal to all federal, state and local government web resources and services.